createdAt,value
2018-06-01T00:02:13.736Z,97.00
2018-06-01T00:04:40.946Z,96.70
2018-06-01T00:07:07.462Z,96.70
2018-06-01T00:09:33.953Z,96.60
2018-06-01T00:12:01.198Z,96.20
2018-06-01T00:14:27.655Z,96.20
2018-06-01T00:16:54.828Z,96.50
2018-06-01T00:19:21.283Z,96.50
2018-06-01T00:21:47.771Z,96.20
2018-06-01T00:24:14.285Z,96.10
2018-06-01T00:26:40.779Z,96.30
2018-06-01T00:29:07.228Z,97.40
2018-06-01T00:31:33.673Z,97.70
2018-06-01T00:34:00.123Z,97.30
2018-06-01T00:36:26.579Z,97.40
2018-06-01T00:38:53.050Z,97.80
2018-06-01T00:41:19.495Z,97.90
2018-06-01T00:43:45.955Z,97.50
2018-06-01T00:46:13.140Z,97.00
2018-06-01T00:48:39.602Z,97.00
2018-06-01T00:51:06.050Z,96.80
2018-06-01T00:53:32.503Z,97.20
2018-06-01T00:55:58.958Z,97.40
2018-06-01T00:58:26.152Z,97.00
2018-06-01T01:00:53.664Z,97.00
2018-06-01T01:03:28.371Z,97.20
2018-06-01T01:05:55.716Z,97.10
2018-06-01T01:08:23.059Z,97.40
2018-06-01T01:10:49.616Z,97.40
2018-06-01T01:13:17.925Z,97.40
2018-06-01T01:15:44.500Z,97.40
2018-06-01T01:18:11.081Z,97.70
2018-06-01T01:20:37.709Z,97.90
2018-06-01T01:23:05.031Z,97.80
2018-06-01T01:25:31.646Z,97.80
2018-06-01T01:27:58.272Z,97.70
2018-06-01T01:30:25.826Z,97.90
2018-06-01T01:32:52.388Z,97.70
2018-06-01T01:35:18.967Z,97.60
2018-06-01T01:37:46.334Z,97.60
2018-06-01T01:40:12.934Z,97.60
2018-06-01T01:42:39.534Z,97.40
2018-06-01T01:45:06.101Z,97.50
2018-06-01T01:47:32.670Z,97.40
2018-06-01T01:49:59.266Z,97.40
2018-06-01T01:52:25.826Z,97.20
2018-06-01T01:54:52.364Z,97.30
2018-06-01T01:57:18.982Z,97.40
2018-06-01T01:59:45.543Z,97.40
2018-06-01T02:02:21.123Z,97.30
2018-06-01T02:04:47.629Z,97.40
2018-06-01T02:07:14.078Z,97.30
2018-06-01T02:09:40.570Z,97.30
2018-06-01T02:12:07.018Z,97.30
2018-06-01T02:14:33.483Z,97.30
2018-06-01T02:16:59.943Z,97.20
2018-06-01T02:19:26.442Z,97.10
2018-06-01T02:21:52.910Z,97.30
2018-06-01T02:27:26.357Z,97.40
2018-06-01T02:29:52.839Z,97.40
2018-06-01T02:32:19.284Z,97.30
2018-06-01T02:34:45.753Z,97.20
2018-06-01T02:37:12.974Z,97.60
2018-06-01T02:39:39.459Z,97.40
2018-06-01T02:42:06.037Z,97.30
2018-06-01T02:44:32.528Z,97.30
2018-06-01T02:46:59.712Z,97.60
2018-06-01T02:49:28.198Z,97.50
2018-06-01T02:51:54.657Z,97.50
2018-06-01T02:54:29.854Z,97.40
2018-06-01T02:56:57.148Z,97.40
2018-06-01T02:59:23.754Z,97.40
2018-06-01T03:01:52.307Z,97.40
2018-06-01T03:04:19.928Z,97.30
2018-06-01T03:06:58.605Z,97.40
2018-06-01T03:09:25.154Z,97.30
2018-06-01T03:11:52.463Z,97.50
2018-06-01T03:14:19.085Z,97.50
2018-06-01T03:16:45.655Z,97.50
2018-06-01T03:19:12.264Z,97.50
2018-06-01T03:21:38.780Z,97.40
2018-06-01T03:24:05.319Z,97.40
2018-06-01T03:26:31.877Z,97.50
2018-06-01T03:28:58.405Z,97.40
2018-06-01T03:31:25.773Z,97.30
2018-06-01T03:33:52.316Z,97.70
2018-06-01T03:36:18.903Z,97.30
2018-06-01T03:38:46.174Z,97.20
2018-06-01T03:41:12.732Z,97.20
2018-06-01T03:43:40.084Z,97.40
2018-06-01T03:46:06.684Z,97.40
2018-06-01T03:48:33.293Z,97.40
2018-06-01T03:50:59.827Z,97.40
2018-06-01T03:55:53.337Z,97.40
2018-06-01T03:58:20.540Z,97.50
2018-06-01T04:00:47.011Z,97.50
2018-06-01T04:03:14.263Z,97.40
2018-06-01T04:05:40.694Z,97.40
2018-06-01T04:08:07.147Z,97.40
2018-06-01T04:10:33.595Z,97.50
2018-06-01T04:13:00.087Z,97.50
2018-06-01T04:15:26.559Z,97.40
2018-06-01T04:17:53.070Z,97.40
2018-06-01T04:20:19.504Z,97.40
2018-06-01T04:22:45.961Z,97.40
2018-06-01T04:25:14.133Z,97.20
2018-06-01T04:27:40.622Z,97.20
2018-06-01T04:30:07.086Z,97.20
2018-06-01T04:32:33.563Z,97.30
2018-06-01T04:35:00.041Z,97.20
2018-06-01T04:37:26.460Z,97.40
2018-06-01T04:39:52.984Z,97.30
2018-06-01T04:42:19.448Z,97.30
2018-06-01T04:44:45.907Z,97.30
2018-06-01T04:47:12.353Z,97.30
2018-06-01T04:49:38.821Z,97.30
2018-06-01T04:52:05.302Z,97.20
2018-06-01T04:54:31.762Z,97.20
2018-06-01T04:59:31.895Z,97.10
2018-06-01T05:01:58.383Z,97.10
2018-06-01T05:04:25.644Z,97.00
2018-06-01T05:06:52.120Z,97.00
2018-06-01T05:09:18.580Z,97.00
2018-06-01T05:11:45.082Z,96.90
2018-06-01T05:14:11.607Z,96.80
2018-06-01T05:16:38.139Z,96.80
2018-06-01T05:19:04.618Z,96.90
2018-06-01T05:21:32.111Z,97.00
2018-06-01T05:23:58.691Z,96.80
2018-06-01T05:26:25.159Z,96.80
2018-06-01T05:28:52.398Z,96.70
2018-06-01T05:31:18.930Z,96.70
2018-06-01T05:33:46.159Z,96.60
2018-06-01T05:36:13.671Z,96.60
2018-06-01T05:38:40.209Z,96.50
2018-06-01T05:41:06.729Z,96.50
2018-06-01T05:43:33.241Z,96.50
2018-06-01T05:45:59.783Z,96.30
2018-06-01T05:48:27.035Z,96.10
2018-06-01T05:50:53.534Z,96.10
2018-06-01T05:53:20.010Z,96.00
2018-06-01T05:55:47.254Z,95.90
2018-06-01T05:58:13.723Z,95.90
2018-06-01T06:00:40.232Z,95.40
2018-06-01T06:03:07.472Z,95.70
2018-06-01T06:05:33.978Z,95.70
2018-06-01T06:08:00.522Z,95.80
2018-06-01T06:10:27.047Z,96.10
2018-06-01T06:12:53.553Z,96.10
2018-06-01T06:20:14.950Z,95.70
2018-06-01T06:22:41.458Z,95.70
2018-06-01T06:25:07.959Z,95.70
2018-06-01T06:27:34.413Z,95.90
2018-06-01T06:30:02.677Z,95.50
2018-06-01T06:32:29.132Z,95.90
2018-06-01T06:34:55.641Z,95.20
2018-06-01T06:37:22.889Z,95.60
2018-06-01T06:39:50.363Z,95.60
2018-06-01T06:42:16.832Z,95.60
2018-06-01T06:44:43.257Z,95.60
2018-06-01T06:47:27.441Z,95.40
2018-06-01T06:49:55.906Z,95.30
2018-06-01T06:52:22.372Z,95.40
2018-06-01T06:54:49.918Z,99.90
2018-06-01T06:57:16.352Z,95.40
2018-06-01T06:59:42.831Z,95.30
2018-06-01T07:02:09.268Z,95.00
2018-06-01T07:04:35.784Z,97.60
2018-06-01T07:07:02.234Z,99.90
2018-06-01T07:09:28.696Z,99.90
2018-06-01T07:11:55.870Z,99.80
2018-06-01T07:14:22.344Z,99.60
2018-06-01T07:16:48.848Z,99.60
2018-06-01T07:19:15.333Z,99.90
2018-06-01T07:21:42.569Z,99.90
2018-06-01T07:24:08.993Z,99.90
2018-06-01T07:26:36.213Z,99.90
2018-06-01T07:29:16.596Z,99.70
2018-06-01T07:31:43.206Z,99.90
2018-06-01T07:34:10.885Z,94.30
2018-06-01T07:36:37.519Z,94.70
2018-06-01T07:39:04.964Z,94.20
2018-06-01T07:41:32.340Z,94.00
2018-06-01T07:43:58.929Z,94.00
2018-06-01T07:46:25.581Z,94.30
2018-06-01T07:48:52.125Z,94.20
2018-06-01T07:51:18.718Z,94.30
2018-06-01T07:53:45.223Z,94.30
2018-06-01T07:56:12.531Z,94.30
2018-06-01T07:58:39.089Z,94.40
2018-06-01T08:01:05.683Z,94.50
2018-06-01T08:03:32.275Z,94.50
2018-06-01T08:05:59.804Z,94.20
2018-06-01T08:08:26.335Z,94.40
2018-06-01T08:13:50.796Z,94.10
2018-06-01T08:16:17.301Z,94.40
2018-06-01T08:18:43.878Z,94.30
2018-06-01T08:21:10.367Z,94.40
2018-06-01T08:23:36.947Z,94.20
2018-06-01T08:26:03.504Z,94.50
2018-06-01T08:28:30.021Z,94.50
2018-06-01T08:30:57.249Z,94.40
2018-06-01T08:33:23.685Z,94.40
2018-06-01T08:35:50.150Z,94.50
2018-06-01T08:38:17.313Z,94.40
2018-06-01T08:40:43.718Z,94.40
2018-06-01T08:47:15.133Z,94.80
2018-06-01T08:49:41.610Z,94.40
2018-06-01T08:52:08.044Z,94.40
2018-06-01T08:54:34.499Z,94.80
2018-06-01T08:57:00.915Z,94.80
2018-06-01T08:59:27.393Z,94.80
2018-06-01T09:01:53.839Z,94.90
2018-06-01T09:04:20.306Z,94.80
2018-06-01T09:06:46.756Z,94.90
2018-06-01T09:09:13.155Z,95.10
2018-06-01T09:11:40.290Z,95.00
2018-06-01T09:14:08.229Z,95.50
2018-06-01T09:16:34.662Z,95.50
2018-06-01T09:19:01.080Z,95.40
2018-06-01T09:21:27.496Z,95.20
2018-06-01T09:23:53.911Z,95.00
2018-06-01T09:26:20.320Z,95.00
2018-06-01T09:28:46.796Z,95.00
2018-06-01T09:31:13.264Z,94.60
2018-06-01T09:33:40.451Z,94.60
2018-06-01T09:36:06.909Z,94.60
2018-06-01T09:38:33.522Z,94.40
2018-06-01T09:43:31.551Z,94.90
2018-06-01T09:45:58.041Z,94.60
2018-06-01T09:48:24.534Z,93.90
2018-06-01T09:50:50.971Z,94.00
2018-06-01T09:53:17.416Z,94.20
2018-06-01T09:55:43.800Z,93.70
2018-06-01T09:58:10.965Z,93.40
2018-06-01T10:00:43.562Z,93.40
2018-06-01T10:03:09.982Z,93.60
2018-06-01T10:05:36.382Z,93.00
2018-06-01T10:08:02.824Z,92.70
2018-06-01T10:10:35.327Z,92.10
2018-06-01T10:13:01.724Z,92.60
2018-06-01T10:15:28.153Z,92.30
2018-06-01T10:17:54.556Z,92.90
2018-06-01T10:20:21.789Z,91.80
2018-06-01T10:22:48.221Z,91.80
2018-06-01T10:25:14.730Z,91.70
2018-06-01T10:27:41.180Z,91.50
2018-06-01T10:30:07.611Z,91.80
2018-06-01T10:32:34.019Z,91.60
2018-06-01T10:35:01.203Z,91.70
2018-06-01T10:37:27.667Z,91.70
2018-06-01T10:39:54.094Z,92.50
2018-06-01T10:42:20.504Z,91.80
2018-06-01T10:44:46.891Z,91.60
2018-06-01T10:47:13.295Z,91.90
2018-06-01T10:49:39.785Z,91.90
2018-06-01T10:52:19.390Z,91.90
2018-06-01T10:54:46.621Z,92.10
2018-06-01T10:57:13.159Z,92.10
2018-06-01T10:59:39.582Z,91.70
2018-06-01T11:02:06.088Z,92.00
2018-06-01T11:04:32.588Z,91.60
2018-06-01T11:06:59.142Z,91.80
2018-06-01T11:09:25.607Z,91.20
2018-06-01T11:11:52.171Z,91.40
2018-06-01T11:14:19.447Z,91.70
2018-06-01T11:16:46.665Z,91.80
2018-06-01T11:19:13.148Z,91.80
2018-06-01T11:21:39.639Z,91.30
2018-06-01T11:24:06.114Z,91.90
2018-06-01T11:26:32.551Z,92.00
2018-06-01T11:28:59.103Z,92.40
2018-06-01T11:31:25.574Z,92.60
2018-06-01T11:33:52.091Z,92.70
2018-06-01T11:36:18.540Z,92.60
2018-06-01T11:38:45.768Z,92.80
2018-06-01T11:41:12.194Z,92.80
2018-06-01T11:43:39.705Z,93.30
2018-06-01T11:46:06.236Z,93.70
2018-06-01T11:48:32.710Z,93.60
2018-06-01T11:50:59.194Z,93.00
2018-06-01T11:53:25.656Z,93.40
2018-06-01T11:55:52.102Z,93.40
2018-06-01T11:58:18.616Z,93.50
2018-06-01T12:00:45.108Z,93.50
2018-06-01T12:03:12.331Z,92.80
2018-06-01T12:05:38.754Z,92.70
2018-06-01T12:08:05.175Z,92.50
2018-06-01T12:10:31.714Z,93.10
2018-06-01T12:12:58.150Z,92.60
2018-06-01T12:15:30.012Z,93.00
2018-06-01T12:17:56.428Z,92.60
2018-06-01T12:21:07.887Z,92.50
2018-06-01T12:23:34.285Z,92.40
2018-06-01T12:26:00.710Z,92.00
2018-06-01T12:29:07.897Z,91.90
2018-06-01T12:31:34.328Z,92.20
2018-06-01T12:34:06.185Z,91.60
2018-06-01T12:36:32.600Z,91.70
2018-06-01T12:39:00.239Z,91.60
2018-06-01T12:41:26.647Z,91.90
2018-06-01T12:43:54.853Z,91.20
2018-06-01T12:46:21.284Z,91.20
2018-06-01T12:48:49.860Z,91.10
2018-06-01T12:51:16.305Z,91.40
2018-06-01T12:54:09.752Z,91.40
2018-06-01T12:56:36.134Z,91.60
2018-06-01T13:02:37.814Z,91.20
2018-06-01T13:05:26.111Z,90.30
2018-06-01T13:07:52.525Z,90.70
2018-06-01T13:10:19.742Z,90.40
2018-06-01T13:12:46.215Z,90.40
2018-06-01T13:15:12.674Z,90.30
2018-06-01T13:17:39.265Z,89.80
2018-06-01T13:20:05.723Z,89.30
2018-06-01T13:22:32.354Z,89.40
2018-06-01T13:24:59.553Z,90.30
2018-06-01T13:27:26.057Z,90.30
2018-06-01T13:29:53.224Z,90.70
2018-06-01T14:12:45.600Z,92.30
2018-06-01T14:15:13.045Z,92.00
2018-06-01T14:17:39.425Z,92.40
2018-06-01T14:20:05.952Z,92.70
2018-06-01T14:22:32.366Z,92.00
2018-06-01T14:24:58.749Z,92.00
2018-06-01T14:27:25.705Z,92.10
2018-06-01T14:29:52.195Z,92.40
2018-06-01T14:32:18.606Z,92.50
2018-06-01T14:34:45.038Z,92.60
2018-06-01T14:37:11.427Z,92.40
2018-06-01T14:39:37.849Z,92.40
2018-06-01T14:42:04.270Z,93.00
2018-06-01T14:44:30.714Z,92.60
2018-06-01T14:49:33.793Z,92.30
2018-06-01T14:52:00.228Z,92.10
2018-06-01T14:54:26.702Z,92.50
2018-06-01T14:56:53.818Z,92.50
2018-06-01T14:59:20.224Z,92.50
2018-06-01T15:01:46.675Z,92.30
2018-06-01T15:04:13.192Z,92.50
2018-06-01T15:06:39.598Z,92.10
2018-06-01T15:11:32.563Z,92.80
2018-06-01T15:13:59.174Z,93.00
2018-06-01T15:16:25.697Z,92.70
2018-06-01T15:18:52.171Z,92.80
2018-06-01T15:21:18.678Z,93.00
2018-06-01T15:23:45.933Z,93.00
2018-06-01T15:26:13.162Z,93.20
2018-06-01T15:31:12.787Z,93.00
2018-06-01T15:33:39.243Z,93.10
2018-06-01T15:36:05.682Z,93.00
2018-06-01T15:38:33.634Z,93.10
2018-06-01T15:41:00.119Z,93.10
2018-06-01T15:43:26.717Z,93.10
2018-06-01T15:45:53.124Z,92.80
2018-06-01T15:48:21.652Z,93.20
2018-06-01T15:50:48.863Z,92.80
2018-06-01T15:53:15.528Z,92.80
2018-06-01T15:55:42.734Z,92.70
2018-06-01T15:58:09.188Z,92.70
2018-06-01T16:00:35.654Z,92.70
2018-06-01T16:03:03.272Z,92.70
2018-06-01T16:05:29.720Z,92.70
2018-06-01T16:07:56.328Z,92.60
2018-06-01T16:10:22.762Z,92.30
2018-06-01T16:12:50.417Z,92.30
2018-06-01T16:15:17.605Z,91.90
2018-06-01T16:17:45.128Z,91.90
2018-06-01T16:20:24.550Z,92.00
2018-06-01T16:25:22.839Z,92.30
2018-06-01T16:27:49.389Z,92.30
2018-06-01T16:30:15.804Z,92.10
2018-06-01T16:32:42.356Z,92.20
2018-06-01T16:35:09.535Z,92.40
2018-06-01T16:37:36.684Z,92.60
2018-06-01T16:40:03.883Z,92.40
2018-06-01T16:42:30.334Z,92.40
2018-06-01T16:44:56.741Z,92.50
2018-06-01T16:47:23.155Z,92.40
2018-06-01T16:49:49.585Z,92.50
2018-06-01T16:52:16.006Z,92.20
2018-06-01T16:54:43.155Z,92.20
2018-06-01T16:57:10.289Z,92.30
2018-06-01T16:59:36.705Z,92.30
2018-06-01T17:02:03.129Z,92.20
2018-06-01T17:04:29.620Z,91.90
2018-06-01T17:06:56.066Z,92.10
2018-06-01T17:09:22.505Z,92.20
2018-06-01T17:11:48.936Z,92.30
2018-06-01T17:14:15.418Z,92.10
2018-06-01T17:16:42.584Z,91.80
2018-06-01T17:19:09.756Z,91.80
2018-06-01T17:21:36.193Z,91.80
2018-06-01T17:24:02.627Z,92.00
2018-06-01T17:29:05.008Z,91.80
2018-06-01T17:31:32.282Z,92.20
2018-06-01T17:33:59.568Z,92.00
2018-06-01T17:36:26.076Z,92.00
2018-06-01T17:38:52.609Z,92.20
2018-06-01T17:41:19.229Z,92.30
2018-06-01T17:43:46.510Z,91.70
2018-06-01T17:46:13.092Z,91.70
2018-06-01T17:48:39.634Z,92.10
2018-06-01T17:51:06.941Z,92.00
2018-06-01T17:53:33.484Z,92.00
2018-06-01T17:56:00.124Z,93.10
2018-06-01T17:58:26.673Z,92.50
2018-06-01T18:00:53.194Z,92.50
2018-06-01T18:03:19.743Z,92.80
2018-06-01T18:05:46.280Z,93.00
2018-06-01T18:08:12.810Z,93.20
2018-06-01T18:10:39.412Z,93.40
2018-06-01T18:13:05.982Z,93.70
2018-06-01T18:15:32.665Z,93.50
2018-06-01T18:17:59.899Z,93.80
2018-06-01T18:20:27.266Z,94.20
2018-06-01T18:22:54.540Z,94.00
2018-06-01T18:25:21.141Z,93.90
2018-06-01T18:27:48.382Z,93.90
2018-06-01T18:30:14.837Z,93.70
2018-06-01T18:32:41.420Z,93.90
2018-06-01T18:35:07.862Z,94.10
2018-06-01T18:37:34.321Z,94.40
2018-06-01T18:40:00.719Z,94.30
2018-06-01T18:42:27.161Z,94.10
2018-06-01T18:44:53.583Z,94.40
2018-06-01T18:47:20.739Z,94.30
2018-06-01T18:52:13.605Z,94.40
2018-06-01T18:54:40.846Z,94.40
2018-06-01T18:57:08.106Z,94.40
2018-06-01T18:59:35.328Z,94.60
2018-06-01T19:02:01.898Z,94.50
2018-06-01T19:04:28.422Z,94.20
2018-06-01T19:06:55.662Z,94.30
2018-06-01T19:09:22.146Z,94.40
2018-06-01T19:11:48.626Z,94.20
2018-06-01T19:14:15.082Z,94.20
2018-06-01T19:16:42.337Z,94.30
2018-06-01T19:19:09.552Z,94.50
2018-06-01T19:21:36.017Z,94.50
2018-06-01T19:24:03.251Z,94.50
2018-06-01T19:26:30.231Z,94.50
2018-06-01T19:28:56.810Z,94.50
2018-06-01T19:31:23.310Z,94.70
2018-06-01T19:33:49.800Z,94.70
2018-06-01T19:36:16.271Z,94.70
2018-06-01T19:38:42.786Z,94.70
2018-06-01T19:41:10.064Z,94.70
2018-06-01T19:43:36.543Z,94.70
2018-06-01T19:46:03.008Z,94.80
2018-06-01T19:48:30.227Z,95.00
2018-06-01T19:50:56.693Z,95.00
2018-06-01T19:53:23.936Z,95.20
2018-06-01T19:55:50.641Z,95.20
2018-06-01T19:58:17.141Z,95.60
2018-06-01T20:00:43.673Z,95.20
2018-06-01T20:03:10.398Z,95.10
2018-06-01T20:05:36.902Z,95.00
2018-06-01T20:08:04.143Z,95.00
2018-06-01T20:10:32.381Z,94.70
2018-06-01T20:12:58.832Z,94.60
2018-06-01T20:15:25.320Z,95.10
2018-06-01T20:17:51.821Z,94.90
2018-06-01T20:20:20.102Z,95.10
2018-06-01T20:22:46.642Z,95.10
2018-06-01T20:25:13.777Z,95.00
2018-06-01T20:27:40.980Z,94.90
2018-06-01T20:30:07.373Z,94.90
2018-06-01T20:32:33.812Z,94.90
2018-06-01T20:35:00.242Z,95.10
2018-06-01T20:37:26.978Z,95.10
2018-06-01T20:39:53.434Z,95.30
2018-06-01T20:42:19.838Z,95.20
2018-06-01T20:44:46.277Z,95.30
2018-06-01T20:47:12.691Z,95.00
2018-06-01T20:49:39.859Z,95.10
2018-06-01T20:52:06.308Z,95.10
2018-06-01T20:54:32.779Z,94.90
2018-06-01T20:57:00.090Z,94.90
2018-06-01T20:59:27.003Z,94.80
2018-06-01T21:01:55.253Z,94.90
2018-06-01T21:04:21.680Z,94.90
2018-06-01T21:06:48.108Z,94.80
2018-06-01T21:09:14.641Z,95.40
2018-06-01T21:11:41.107Z,95.20
2018-06-01T21:14:07.539Z,95.20
2018-06-01T21:16:34.700Z,95.20
2018-06-01T21:19:01.120Z,95.20
2018-06-01T21:21:28.398Z,95.40
2018-06-01T21:23:59.257Z,95.40
2018-06-01T21:26:25.917Z,95.40
2018-06-01T21:28:52.420Z,95.30
2018-06-01T21:31:19.047Z,95.60
2018-06-01T21:33:46.655Z,95.90
2018-06-01T21:36:13.217Z,95.80
2018-06-01T21:38:40.851Z,95.90
2018-06-01T21:41:07.616Z,95.80
2018-06-01T21:43:34.093Z,95.60
2018-06-01T21:46:00.499Z,95.40
2018-06-01T21:48:27.090Z,95.20
2018-06-01T21:50:53.656Z,95.30
2018-06-01T21:53:20.111Z,95.10
2018-06-01T21:55:46.552Z,95.10
2018-06-01T21:58:12.980Z,94.90
2018-06-01T22:00:39.587Z,94.80
2018-06-01T22:03:06.062Z,94.70
2018-06-01T22:05:32.548Z,94.70
2018-06-01T22:07:59.016Z,94.50
2018-06-01T22:10:25.634Z,94.90
2018-06-01T22:12:53.101Z,94.80
2018-06-01T22:15:21.670Z,94.80
2018-06-01T22:17:49.169Z,94.70
2018-06-01T22:20:17.551Z,94.40
2018-06-01T22:22:44.866Z,94.70
2018-06-01T22:25:11.529Z,94.70
2018-06-01T22:27:38.160Z,94.50
2018-06-01T22:30:05.496Z,94.60
2018-06-01T22:32:32.102Z,94.60
2018-06-01T22:34:58.683Z,94.80
2018-06-01T22:37:26.035Z,94.50
2018-06-01T22:39:52.658Z,94.50
2018-06-01T22:42:19.338Z,94.40
2018-06-01T22:44:46.739Z,94.70
2018-06-01T22:47:13.335Z,94.70
2018-06-01T22:49:39.941Z,94.50
2018-06-01T22:54:31.991Z,94.30
2018-06-01T22:56:58.600Z,94.70
2018-06-01T22:59:25.223Z,94.60
2018-06-01T23:01:51.864Z,94.80
2018-06-01T23:04:18.471Z,94.60
2018-06-01T23:06:45.823Z,94.50
2018-06-01T23:09:13.181Z,94.60
2018-06-01T23:11:39.816Z,94.50
2018-06-01T23:14:07.147Z,94.80
2018-06-01T23:16:33.751Z,94.70
2018-06-01T23:19:00.348Z,94.70
2018-06-01T23:21:27.707Z,94.70
2018-06-01T23:23:54.363Z,94.70
2018-06-01T23:26:20.992Z,94.70
2018-06-01T23:28:47.615Z,94.80
2018-06-01T23:31:14.229Z,94.70
2018-06-01T23:33:40.854Z,94.60
2018-06-01T23:38:34.817Z,94.30
2018-06-01T23:41:01.375Z,94.20
2018-06-01T23:43:27.891Z,94.20
2018-06-01T23:45:56.129Z,94.10
2018-06-01T23:48:22.593Z,94.10
2018-06-01T23:50:50.797Z,94.20
2018-06-01T23:53:17.261Z,94.20
2018-06-01T23:55:43.701Z,94.10
2018-06-01T23:58:10.153Z,94.10
